Latest Weather Observations for Mandora

IDW60801

Issued at 4:05 pm WST Friday 28 November 2014 (issued every 30 minutes, with the page automatically refreshed every 10 minutes)

About weather observations | Map of weather stations | Latest weather observations for WA | Other Formats
Station Details ID: 004019 Name: MANDORA Lat: -19.74 Lon: 120.84 Height: 7.5 m
Data from the previous 72 hours. | See also: Recent months at Mandora
Date/Time
WST
Temp
°C
App
Temp
°C
Dew
Point
Rel
Hum
%
Delta-T
°C
Wind Press
QNH
hPa
Press
MSL
hPa
Rain
since 9 am
mm
Dir
 
Spd
km/h
Gust
km/h
Spd
kts
Gust
kts
28/04:00pm 33.1 34.0 24.0 59 6.4 NW 26 41 14 22 1005.6 - 0.0
28/03:30pm 34.0 34.7 24.3 57 6.8 NNW 28 39 15 21 1005.6 - 0.0
28/03:00pm 34.6 35.0 24.5 55 7.1 NNW 30 41 16 22 1005.4 1005.3 0.0
28/02:30pm 35.2 35.8 23.5 50 8.2 NNW 26 35 14 19 1005.6 - 0.0
28/02:00pm 35.1 35.7 23.4 50 8.1 NNW 26 37 14 20 1006.2 - 0.0
28/01:30pm 35.5 36.3 24.4 52 7.8 N 28 37 15 20 1006.6 - 0.0
28/01:00pm 36.0 36.8 23.2 47 8.9 N 24 33 13 18 1007.0 - 0.0
28/12:30pm 35.5 36.3 23.1 48 8.6 N 24 32 13 17 1007.4 - 0.0
28/12:00pm 36.4 37.7 23.3 47 9.2 N 22 32 12 17 1007.7 1007.6 0.0
28/11:30am 36.3 38.3 23.9 49 8.7 N 20 30 11 16 1008.0 - 0.0
28/11:00am 35.8 37.7 23.4 48 8.6 NNW 19 28 10 15 1008.5 - 0.0
28/10:30am 35.7 37.2 23.7 50 8.4 N 22 30 12 16 1008.8 - 0.0
28/10:00am 36.3 38.6 23.5 47 8.9 N 17 26 9 14 1009.2 - 0.0
28/09:30am 36.7 39.4 21.3 40 10.5 E 9 17 5 9 1009.5 - 0.0
28/09:00am 36.2 39.8 23.1 47 9.1 ENE 9 20 5 11 1009.7 1009.6 0.0
28/08:30am 34.6 37.9 22.6 49 8.3 E 9 15 5 8 1009.9 - 0.0
28/08:00am 33.4 37.0 23.7 56 6.8 SE 11 19 6 10 1010.0 - 0.0
28/07:30am 32.8 36.8 23.7 58 6.3 E 9 15 5 8 1010.0 - 0.0
28/07:00am 31.0 36.4 23.9 66 4.9 ENE 2 7 1 4 1009.8 - 0.0
28/06:30am 29.5 36.4 25.7 80 2.7 CALM 0 0 0 0 1009.7 - 0.0
28/06:00am 27.3 32.9 24.9 87 1.7 E 4 7 2 4 1009.8 1009.7 0.0
28/05:30am 25.9 30.3 23.8 88 1.4 E 7 9 4 5 1009.2 - 0.0
28/05:00am 26.0 30.5 23.9 88 1.4 E 7 9 4 5 1009.0 - 0.0
28/04:30am 26.1 30.7 24.1 89 1.4 ENE 7 11 4 6 1008.8 - 0.0
28/04:00am 26.1 30.8 24.0 88 1.4 E 6 11 3 6 1008.7 - 0.0
28/03:30am 26.2 30.8 24.1 88 1.4 ENE 7 11 4 6 1008.6 - 0.0
28/03:00am 26.8 31.7 24.6 88 1.5 ESE 7 9 4 5 1008.5 1008.4 0.0
28/02:30am 26.7 31.6 24.4 87 1.6 SSW 6 11 3 6 1008.6 - 0.0
28/02:00am 26.7 32.0 24.4 87 1.6 SSW 4 9 2 5 1008.4 - 0.0
28/01:30am 26.9 32.2 24.4 86 1.7 ENE 4 7 2 4 1008.5 - 0.0
28/01:00am 27.3 32.4 24.9 87 1.7 ENE 7 9 4 5 1008.7 - 0.0
28/12:30am 27.3 32.8 24.7 86 1.8 N 4 7 2 4 1008.8 - 0.0
28/12:00am 27.8 34.1 24.8 84 2.1 CALM 0 0 0 0 1008.9 1008.8 0.0
 
Date/Time
WST
Temp
°C
App
Temp
°C
Dew
Point
Rel
Hum
%
Delta-T
°C
Wind Press
QNH
hPa
Press
MSL
hPa
Rain
since 9 am
mm
Dir
 
Spd
km/h
Gust
km/h
Spd
kts
Gust
kts
27/11:30pm 28.1 33.5 25.1 84 2.1 W 6 9 3 5 1008.7 - 0.0
27/11:00pm 28.4 33.7 25.2 83 2.2 W 7 9 4 5 1008.8 - 0.0
27/10:30pm 28.6 33.9 25.2 82 2.4 WNW 7 9 4 5 1008.6 - 0.0
27/10:00pm 28.7 33.5 24.5 78 2.9 NW 7 9 4 5 1008.5 - 0.0
27/09:30pm 29.3 34.2 24.4 75 3.4 N 6 7 3 4 1008.4 - 0.0
27/09:00pm 30.0 34.5 24.6 73 3.8 N 9 13 5 7 1008.3 1008.2 0.0
27/08:30pm 30.3 34.7 24.4 70 4.1 N 9 13 5 7 1008.3 - 0.0
27/08:00pm 30.5 35.0 24.6 70 4.1 N 9 13 5 7 1007.7 - 0.0
27/07:30pm 30.8 34.4 24.4 68 4.5 N 13 19 7 10 1007.3 - 0.0
27/07:00pm 31.2 34.6 24.1 66 4.9 N 13 20 7 11 1007.1 - 0.0
27/06:30pm 31.7 33.8 23.8 63 5.5 NNE 19 26 10 14 1006.8 - 0.0
27/06:00pm 32.4 33.3 23.3 58 6.3 NNE 24 35 13 19 1006.5 1006.4 0.0
27/05:44pm 32.7 32.7 23.1 57 6.6 NNE 28 41 15 22 1006.5 - 0.0
27/05:30pm 35.6 37.4 20.3 40 10.3 NNW 11 17 6 9 1005.8 - 0.0
27/05:00pm 37.9 40.4 20.2 35 11.9 ENE 7 15 4 8 1005.8 - 0.0
27/04:30pm 39.9 39.4 14.8 22 15.8 E 11 20 6 11 1005.4 - 0.0
27/04:00pm 39.5 38.4 15.2 24 15.4 SE 15 30 8 16 1005.3 - 0.0
27/03:30pm 39.5 39.1 15.2 24 15.4 ESE 11 17 6 9 1005.1 - 0.0
27/03:00pm 40.8 40.6 15.6 23 16.2 ENE 11 20 6 11 1005.3 1005.2 0.0
27/02:30pm 40.2 38.5 15.7 23 15.7 ENE 19 32 10 17 1005.5 - 0.0
27/02:00pm 40.8 39.3 16.2 23 15.9 SE 19 30 10 16 1006.0 - 0.0
27/01:30pm 41.0 39.9 16.4 23 15.9 SE 17 30 9 16 1006.6 - 0.0
27/01:00pm 39.4 36.6 16.3 25 14.9 SE 26 37 14 20 1007.2 - 0.0
27/12:30pm 38.6 37.1 16.8 27 14.1 ESE 20 39 11 21 1007.9 - 0.0
27/12:00pm 37.7 35.9 16.1 28 13.8 SE 20 32 11 17 1008.3 1008.2 0.0
27/11:30am 38.2 36.0 17.0 28 13.7 ESE 24 39 13 21 1008.9 - 0.0
27/11:00am 36.8 33.5 16.9 31 12.8 ESE 30 44 16 24 1009.3 - 0.0
27/10:30am 35.5 32.1 16.8 33 12.0 SE 30 50 16 27 1009.8 - 0.0
27/10:09am 34.8 31.3 16.6 33 11.6 SE 30 52 16 28 1009.9 - 0.0
27/10:00am 34.7 31.6 16.5 33 11.6 SE 28 43 15 23 1010.0 - 0.0
27/09:44am 35.0 32.0 16.8 34 11.6 SE 28 46 15 25 1010.1 - 0.0
27/09:30am 33.9 31.2 16.7 35 10.9 SE 26 44 14 24 1010.2 - 0.0
27/09:00am 32.2 28.5 16.9 40 9.7 SSE 32 54 17 29 1010.0 1009.9 0.0
27/08:31am 31.7 27.7 17.6 43 9.0 SSE 35 54 19 29 1010.1 - 0.0
27/08:30am 31.5 26.9 17.0 41 9.2 SSE 37 54 20 29 1010.2 - 0.0
27/08:03am 31.7 29.1 17.9 43 8.9 SSE 28 46 15 25 1009.8 - 0.0
27/08:00am 31.0 28.0 17.7 45 8.5 SSE 30 46 16 25 1009.9 - 0.0
27/07:35am 30.4 27.7 17.5 46 8.2 SSE 28 50 15 27 1009.8 - 0.0
27/07:30am 30.6 27.4 17.3 45 8.4 SSE 30 44 16 24 1009.8 - 0.0
27/07:00am 29.9 26.9 17.7 48 7.8 SSE 30 48 16 26 1009.4 - 0.0
27/06:45am 29.6 27.0 17.8 49 7.5 SSE 28 46 15 25 1009.1 - 0.0
27/06:30am 29.1 27.7 17.9 50 7.1 SE 22 39 12 21 1009.0 - 0.0
27/06:00am 28.0 26.5 17.8 54 6.5 SSE 22 37 12 20 1008.6 1008.5 0.0
27/05:30am 27.8 26.6 17.6 53 6.4 SSE 20 32 11 17 1008.3 - 0.0
27/05:00am 27.7 27.8 18.4 57 5.9 SSE 15 26 8 14 1008.1 - 0.0
27/04:30am 27.6 28.2 18.6 58 5.8 SSE 13 20 7 11 1007.9 - 0.0
27/04:00am 28.2 27.3 18.3 55 6.3 SSE 20 28 11 15 1007.9 - 0.0
27/03:30am 27.8 27.5 17.3 52 6.6 SSW 15 20 8 11 1007.6 - 0.0
27/03:00am 27.1 27.7 19.4 62 5.0 SSW 15 20 8 11 1007.5 1007.4 0.0
27/02:30am 26.7 29.1 20.1 67 4.3 WSW 7 9 4 5 1007.4 - 0.0
27/02:00am 26.4 28.7 19.8 67 4.3 W 7 9 4 5 1007.3 - 0.0
27/01:30am 26.7 28.6 19.8 66 4.5 W 9 11 5 6 1007.1 - 0.0
27/01:00am 26.0 28.0 19.2 66 4.4 W 7 9 4 5 1006.9 - 0.0
27/12:30am 27.3 29.3 19.1 61 5.3 W 7 11 4 6 1007.0 - 0.0
27/12:00am 27.9 29.6 19.4 60 5.5 SW 9 15 5 8 1006.9 1006.8 0.0
 
Date/Time
WST
Temp
°C
App
Temp
°C
Dew
Point
Rel
Hum
%
Delta-T
°C
Wind Press
QNH
hPa
Press
MSL
hPa
Rain
since 9 am
mm
Dir
 
Spd
km/h
Gust
km/h
Spd
kts
Gust
kts
26/11:30pm 27.4 28.9 19.7 63 5.0 SW 11 15 6 8 1007.1 - 0.0
26/11:00pm 28.1 30.4 19.9 61 5.4 SW 7 11 4 6 1007.4 - 0.0
26/10:30pm 27.5 30.4 21.1 68 4.2 S 7 9 4 5 1007.5 - 0.0
26/10:00pm 28.2 30.8 21.2 65 4.7 WSW 9 11 5 6 1007.4 - 0.0
26/09:30pm 28.9 31.6 21.4 64 5.0 SW 9 13 5 7 1007.1 - 0.0
26/09:00pm 29.1 32.2 22.1 66 4.7 SW 9 11 5 6 1006.8 1006.7 0.0
26/08:30pm 29.3 32.2 22.5 67 4.6 WSW 11 15 6 8 1006.3 - 0.0
26/08:00pm 29.5 32.5 22.7 67 4.6 WSW 11 17 6 9 1005.7 - 0.0
26/07:30pm 30.1 33.3 23.0 65 4.9 W 11 17 6 9 1005.5 - 0.0
26/07:00pm 30.3 33.2 23.2 65 4.9 W 13 17 7 9 1005.2 - 0.0
26/06:30pm 30.8 33.3 23.2 64 5.2 W 15 20 8 11 1004.9 - 0.0
26/06:00pm 31.9 34.6 22.9 59 6.2 WNW 13 20 7 11 1004.5 1004.4 0.0
26/05:30pm 32.9 34.6 22.4 54 7.2 NW 17 22 9 12 1004.2 - 0.0
26/05:00pm 33.9 35.6 22.3 50 7.9 NW 17 28 9 15 1004.1 - 0.0
26/04:30pm 34.6 35.7 22.0 48 8.6 NW 19 28 10 15 1004.0 - 0.0
26/04:00pm 34.7 34.9 21.4 46 9.0 NNW 22 32 12 17 1004.2 - 0.0
26/03:30pm 35.7 35.6 21.5 43 9.7 N 24 33 13 18 1004.3 - 0.0
26/03:00pm 35.9 35.2 21.0 42 10.1 N 26 39 14 21 1004.5 1004.4 0.0
26/02:30pm 37.4 36.5 20.7 38 11.3 N 26 39 14 21 1004.6 - 0.0
26/02:00pm 37.0 34.7 19.4 35 11.7 N 30 46 16 25 1004.6 - 0.0
26/01:54pm 37.0 35.3 19.9 36 11.4 N 28 46 15 25 1004.6 - 0.0
26/01:30pm 38.0 36.9 20.3 35 11.9 N 26 37 14 20 1004.9 - 0.0
26/01:00pm 38.5 38.2 20.3 34 12.3 N 22 37 12 20 1005.1 - 0.0
26/12:30pm 39.0 38.8 19.8 32 12.9 NNE 20 33 11 18 1005.8 - 0.0
26/12:00pm 39.3 37.8 16.2 25 14.9 E 19 35 10 19 1006.3 1006.2 0.0
26/11:30am 39.0 37.7 17.2 28 14.2 ENE 20 35 11 19 1006.8 - 0.0
26/11:00am 37.3 35.4 16.8 29 13.2 ENE 22 41 12 22 1007.4 - 0.0
26/10:30am 36.7 35.0 17.3 31 12.5 E 22 37 12 20 1008.0 - 0.0
26/10:00am 35.4 33.9 17.6 35 11.5 E 22 35 12 19 1008.8 - 0.0
26/09:30am 34.4 31.7 17.6 37 10.8 E 28 43 15 23 1009.5 - 0.0
26/09:00am 33.7 30.9 17.4 37 10.5 E 28 52 15 28 1009.9 1009.8 0.0
26/08:59am 33.6 30.8 17.3 37 10.4 E 28 52 15 28 1009.9 - 0.0
26/08:30am 33.1 31.1 17.3 39 10.1 E 24 39 13 21 1010.0 - 0.0
26/08:00am 31.9 29.9 17.4 42 9.2 ESE 24 44 13 24 1009.8 - 0.0
26/07:30am 30.0 28.7 18.1 49 7.6 SE 22 35 12 19 1010.0 - 0.0
26/07:00am 28.6 28.4 18.4 54 6.5 SE 17 30 9 16 1010.0 - 0.0
26/06:30am 27.4 26.5 18.1 57 5.9 SE 20 37 11 20 1010.1 - 0.0
26/06:00am 26.5 25.3 17.6 58 5.6 SE 20 30 11 16 1009.4 1009.3 0.0
26/05:30am 26.1 25.1 17.5 59 5.4 SE 19 26 10 14 1009.3 - 0.0
26/05:00am 26.0 24.8 17.4 59 5.4 SE 20 32 11 17 1008.9 - 0.0
26/04:30am 26.2 24.2 17.3 58 5.6 SE 24 35 13 19 1009.0 - 0.0
26/04:00am 26.6 24.5 17.1 56 5.9 SE 24 37 13 20 1008.9 - 0.0
26/03:30am 27.1 25.9 17.0 54 6.3 SE 19 32 10 17 1008.9 - 0.0
26/03:00am 27.4 26.6 17.0 53 6.5 SE 17 30 9 16 1008.8 1008.7 0.0
26/02:30am 27.6 27.0 17.5 54 6.4 SE 17 26 9 14 1009.0 - 0.0
26/02:00am 27.7 27.2 17.8 54 6.3 SE 17 28 9 15 1009.1 - 0.0
26/01:30am 28.1 27.3 17.9 54 6.5 SE 19 33 10 18 1009.1 - 0.0
26/01:00am 28.6 28.2 18.1 53 6.7 SE 17 28 9 15 1008.8 - 0.0
26/12:30am 29.1 28.7 18.8 53 6.6 SSE 19 30 10 16 1009.1 - 0.0
26/12:00am 28.8 27.9 18.3 53 6.7 SE 20 30 11 16 1008.6 1008.5 0.0
 
Date/Time
WST
Temp
°C
App
Temp
°C
Dew
Point
Rel
Hum
%
Delta-T
°C
Wind Press
QNH
hPa
Press
MSL
hPa
Rain
since 9 am
mm
Dir
 
Spd
km/h
Gust
km/h
Spd
kts
Gust
kts
25/11:30pm 28.4 30.8 20.9 64 5.0 E 9 15 5 8 1008.1 - 0.0
25/11:00pm 28.3 32.0 22.5 71 3.9 E 7 11 4 6 1008.0 - 0.0
25/10:30pm 28.4 32.1 22.6 71 3.9 ESE 7 11 4 6 1008.5 - 0.0
25/10:00pm 28.8 30.5 23.0 71 4.0 SE 19 26 10 14 1008.6 - 0.0
25/09:30pm 28.6 32.4 22.8 71 3.9 NW 7 9 4 5 1007.4 - 0.0
25/09:00pm 29.1 33.4 23.3 71 4.0 W 6 11 3 6 1007.3 1007.2 0.0
25/08:30pm 29.5 33.1 23.7 71 4.0 W 11 15 6 8 1006.8 - 0.0
25/08:00pm 29.7 33.2 23.6 69 4.2 W 11 15 6 8 1006.5 - 0.0
25/07:30pm 29.8 33.0 23.7 70 4.2 WNW 13 17 7 9 1005.7 - 0.0
25/07:00pm 30.3 33.1 23.7 68 4.6 W 15 22 8 12 1005.1 - 0.0
25/06:30pm 30.6 32.7 23.8 67 4.7 WNW 19 30 10 16 1004.6 - 0.0
25/06:00pm 31.3 33.0 23.4 63 5.5 WNW 20 32 11 17 1004.1 1004.0 0.0
25/05:30pm 32.6 33.9 23.3 58 6.4 WNW 22 33 12 18 1003.6 - 0.0
25/05:00pm 33.7 33.8 21.8 49 8.1 WNW 24 35 13 19 1003.4 - 0.0
25/04:30pm 35.2 34.9 21.1 43 9.5 WNW 24 35 13 19 1003.3 - 0.0

Other Formats:

Comma delimited format used in spreadsheet applications
http://www.bom.gov.au/fwo/IDW60801/IDW60801.94200.axf

JavaScript Object Notation format (JSON) in row-major order
http://www.bom.gov.au/fwo/IDW60801/IDW60801.94200.json